createdAt,value
2022-08-09T00:00:23.480Z,23.43
2022-08-09T00:02:52.311Z,23.33
2022-08-09T00:06:16.162Z,23.25
2022-08-09T00:08:12.954Z,23.17
2022-08-09T00:11:00.978Z,23.16
2022-08-09T00:13:34.360Z,23.10
2022-08-09T00:16:06.628Z,23.08
2022-08-09T00:18:36.173Z,23.03
2022-08-09T00:21:08.418Z,23.00
2022-08-09T00:23:54.874Z,22.97
2022-08-09T00:26:32.354Z,22.84
2022-08-09T00:29:02.556Z,22.76
2022-08-09T00:31:59.267Z,22.71
2022-08-09T00:34:20.436Z,22.72
2022-08-09T00:36:49.419Z,22.65
2022-08-09T00:40:10.208Z,22.52
2022-08-09T00:44:19.181Z,22.43
2022-08-09T00:44:56.495Z,22.35
2022-08-09T00:47:25.421Z,22.27
2022-08-09T00:49:56.474Z,22.27
2022-08-09T00:52:30.082Z,22.27
2022-08-09T00:55:01.219Z,22.24
2022-08-09T00:57:34.710Z,22.27
2022-08-09T01:00:21.859Z,22.17
2022-08-09T01:02:54.861Z,22.11
2022-08-09T01:05:46.426Z,22.08
2022-08-09T01:08:28.543Z,22.14
2022-08-09T01:11:09.709Z,22.19
2022-08-09T01:13:59.418Z,22.21
2022-08-09T01:16:35.101Z,22.10
2022-08-09T01:19:17.147Z,21.76
2022-08-09T01:22:26.168Z,21.79
2022-08-09T01:25:01.869Z,21.70
2022-08-09T01:27:34.826Z,21.74
2022-08-09T01:30:08.312Z,21.52
2022-08-09T01:32:58.641Z,21.47
2022-08-09T01:35:38.311Z,21.58
2022-08-09T01:38:15.415Z,21.49
2022-08-09T01:40:52.990Z,21.43
2022-08-09T01:43:51.070Z,21.46
2022-08-09T01:46:25.286Z,21.57
2022-08-09T01:48:59.779Z,21.61
2022-08-09T01:51:32.233Z,21.82
2022-08-09T01:54:02.469Z,22.03
2022-08-09T01:56:34.578Z,22.10
2022-08-09T01:59:10.508Z,22.23
2022-08-09T02:02:00.136Z,22.28
2022-08-09T02:04:31.397Z,22.18
2022-08-09T02:07:18.415Z,22.10
2022-08-09T02:10:01.361Z,22.00
2022-08-09T02:12:35.010Z,22.02
2022-08-09T02:15:11.728Z,21.97
2022-08-09T02:18:01.113Z,21.94
2022-08-09T02:20:36.332Z,21.93
2022-08-09T02:23:09.388Z,21.88
2022-08-09T02:25:49.494Z,21.87
2022-08-09T02:28:24.524Z,21.79
2022-08-09T02:31:02.683Z,21.79
2022-08-09T02:33:38.057Z,21.73
2022-08-09T02:36:41.980Z,21.73
2022-08-09T02:39:20.097Z,21.70
2022-08-09T02:42:06.949Z,21.62
2022-08-09T02:44:38.845Z,21.59
2022-08-09T02:47:12.765Z,21.19
2022-08-09T02:49:46.705Z,21.47
2022-08-09T02:52:29.720Z,21.47
2022-08-09T02:55:20.146Z,21.53
2022-08-09T02:58:00.573Z,21.63
2022-08-09T03:00:58.208Z,21.60
2022-08-09T03:04:12.823Z,21.67
2022-08-09T03:06:19.735Z,21.44
2022-08-09T03:08:52.831Z,21.50
2022-08-09T03:12:04.217Z,21.60
2022-08-09T03:14:12.447Z,21.59
2022-08-09T03:16:45.088Z,21.58
2022-08-09T03:19:52.282Z,21.53
2022-08-09T03:22:11.864Z,21.50
2022-08-09T03:25:06.578Z,21.44
2022-08-09T03:27:45.327Z,21.44
2022-08-09T03:30:30.129Z,21.42
2022-08-09T03:33:12.852Z,21.34
2022-08-09T03:36:12.904Z,21.29
2022-08-09T03:38:42.058Z,21.28
2022-08-09T03:41:15.279Z,21.26
2022-08-09T03:43:51.883Z,21.19
2022-08-09T03:46:32.451Z,21.06
2022-08-09T03:49:04.185Z,21.10
2022-08-09T03:51:58.397Z,21.06
2022-08-09T03:54:31.158Z,21.02
2022-08-09T03:57:04.327Z,21.03
2022-08-09T03:59:54.248Z,21.02
2022-08-09T04:02:26.953Z,20.98
2022-08-09T04:04:58.470Z,20.98
2022-08-09T04:07:47.847Z,21.03
2022-08-09T04:10:18.425Z,21.01
2022-08-09T04:12:50.914Z,21.14
2022-08-09T04:15:42.825Z,21.19
2022-08-09T04:18:08.848Z,21.21
2022-08-09T04:20:36.859Z,21.17
2022-08-09T04:23:09.850Z,21.25
2022-08-09T04:25:38.538Z,21.21
2022-08-09T04:28:07.151Z,21.21
2022-08-09T04:30:35.218Z,21.26
2022-08-09T04:33:03.255Z,21.32
2022-08-09T04:35:32.892Z,21.35
2022-08-09T04:38:03.511Z,21.45
2022-08-09T04:40:47.137Z,21.48
2022-08-09T04:43:15.888Z,21.51
2022-08-09T04:45:53.510Z,21.50
2022-08-09T04:48:23.883Z,21.55
2022-08-09T04:51:01.818Z,21.62
2022-08-09T04:53:31.342Z,21.62
2022-08-09T04:56:01.121Z,21.73
2022-08-09T04:58:31.827Z,21.73
2022-08-09T05:01:03.403Z,21.74
2022-08-09T05:03:42.722Z,21.79
2022-08-09T05:06:21.999Z,21.86
2022-08-09T05:09:00.566Z,21.94
2022-08-09T05:11:32.298Z,21.97
2022-08-09T05:14:05.982Z,21.98
2022-08-09T05:16:58.042Z,22.02
2022-08-09T05:19:25.537Z,22.06
2022-08-09T05:21:56.041Z,22.08
2022-08-09T05:24:24.883Z,22.07
2022-08-09T05:26:54.616Z,22.06
2022-08-09T05:29:31.624Z,22.12
2022-08-09T05:32:03.394Z,22.03
2022-08-09T05:34:34.055Z,22.10
2022-08-09T05:37:06.856Z,22.12
2022-08-09T05:39:43.661Z,22.21
2022-08-09T05:42:20.592Z,22.19
2022-08-09T05:44:56.945Z,22.30
2022-08-09T05:47:30.461Z,22.42
2022-08-09T05:50:26.786Z,22.48
2022-08-09T05:52:53.670Z,22.53
2022-08-09T05:55:24.029Z,22.51
2022-08-09T05:57:56.420Z,22.62
2022-08-09T06:00:26.890Z,22.73
2022-08-09T06:02:58.706Z,22.68
2022-08-09T06:05:49.978Z,22.72
2022-08-09T06:08:19.440Z,22.90
2022-08-09T06:10:52.238Z,22.78
2022-08-09T06:13:21.825Z,22.84
2022-08-09T06:15:51.669Z,22.91
2022-08-09T06:18:23.791Z,22.98
2022-08-09T06:20:57.085Z,23.10
2022-08-09T06:23:55.170Z,23.13
2022-08-09T06:26:20.075Z,23.20
2022-08-09T06:28:59.434Z,23.29
2022-08-09T06:31:30.977Z,23.38
2022-08-09T06:33:59.783Z,23.49
2022-08-09T06:36:30.038Z,23.57
2022-08-09T06:38:58.935Z,23.67
2022-08-09T06:42:08.244Z,23.72
2022-08-09T06:44:20.058Z,23.87
2022-08-09T06:46:55.288Z,23.83
2022-08-09T06:49:44.752Z,23.88
2022-08-09T06:52:12.217Z,24.02
2022-08-09T06:54:44.080Z,24.15
2022-08-09T06:57:13.376Z,24.15
2022-08-09T07:00:49.543Z,24.19
2022-08-09T07:02:31.819Z,24.37
2022-08-09T07:05:00.229Z,24.60
2022-08-09T07:07:59.023Z,24.77
2022-08-09T07:10:30.003Z,24.91
2022-08-09T07:13:18.579Z,24.98
2022-08-09T07:16:36.369Z,25.03
2022-08-09T07:18:38.636Z,25.06
2022-08-09T07:21:07.683Z,25.18
2022-08-09T07:23:36.484Z,25.19
2022-08-09T07:26:24.267Z,25.21
2022-08-09T07:29:09.411Z,25.22
2022-08-09T07:31:45.452Z,25.22
2022-08-09T07:34:20.635Z,25.33
2022-08-09T07:36:49.592Z,25.36
2022-08-09T07:39:20.193Z,25.52
2022-08-09T07:42:06.631Z,25.64
2022-08-09T07:44:51.153Z,25.74
2022-08-09T07:47:39.493Z,25.83
2022-08-09T07:50:10.851Z,25.89
2022-08-09T07:52:41.366Z,26.04
2022-08-09T07:55:11.770Z,26.11
2022-08-09T07:57:46.837Z,26.19
2022-08-09T08:00:20.835Z,26.21
2022-08-09T08:03:08.411Z,26.22
2022-08-09T08:05:39.274Z,26.29
2022-08-09T08:09:01.126Z,26.44
2022-08-09T08:12:25.062Z,26.55
2022-08-09T08:13:58.816Z,26.63
2022-08-09T08:16:31.326Z,26.74
2022-08-09T08:19:03.233Z,26.80
2022-08-09T08:21:32.649Z,26.92
2022-08-09T08:24:01.130Z,26.98
2022-08-09T08:26:52.467Z,27.09
2022-08-09T08:29:20.122Z,27.17
2022-08-09T08:32:03.204Z,27.28
2022-08-09T08:34:36.606Z,27.42
2022-08-09T08:37:05.355Z,27.56
2022-08-09T08:39:43.407Z,27.60
2022-08-09T08:42:13.578Z,27.68
2022-08-09T08:44:43.857Z,27.66
2022-08-09T08:47:15.167Z,27.71
2022-08-09T08:49:48.358Z,27.76
2022-08-09T08:55:08.526Z,27.79
2022-08-09T08:57:37.892Z,27.77
2022-08-09T09:00:16.951Z,27.94
2022-08-09T09:03:04.416Z,28.22
2022-08-09T09:06:03.326Z,28.40
2022-08-09T09:08:30.437Z,28.52
2022-08-09T09:11:03.662Z,28.61
2022-08-09T09:13:50.290Z,28.70
2022-08-09T09:16:30.171Z,28.79
2022-08-09T09:19:37.296Z,28.95
2022-08-09T09:22:05.423Z,29.18
2022-08-09T09:24:39.714Z,29.27
2022-08-09T09:27:22.169Z,29.40
2022-08-09T09:30:11.404Z,29.39
2022-08-09T09:32:44.843Z,29.54
2022-08-09T09:35:15.876Z,29.58
2022-08-09T09:37:47.225Z,29.55
2022-08-09T09:40:15.494Z,29.45
2022-08-09T09:42:56.541Z,29.59
2022-08-09T09:45:26.805Z,29.59
2022-08-09T09:47:58.625Z,29.59
2022-08-09T09:50:50.558Z,29.71
2022-08-09T09:53:25.050Z,29.71
2022-08-09T09:56:20.100Z,29.60
2022-08-09T09:58:59.034Z,29.86
2022-08-09T10:01:36.921Z,29.96
2022-08-09T10:04:13.896Z,29.95
2022-08-09T10:06:46.948Z,29.83
2022-08-09T10:09:22.454Z,29.81
2022-08-09T10:12:07.794Z,30.00
2022-08-09T10:14:47.975Z,30.06
2022-08-09T10:17:50.735Z,30.09
2022-08-09T10:20:32.370Z,30.08
2022-08-09T10:23:17.217Z,30.41
2022-08-09T10:26:06.184Z,30.65
2022-08-09T10:28:37.342Z,30.97
2022-08-09T10:34:11.450Z,31.25
2022-08-09T10:36:43.296Z,31.25
2022-08-09T10:39:15.661Z,31.33
2022-08-09T10:41:45.624Z,31.28
2022-08-09T10:44:18.815Z,31.36
2022-08-09T10:48:12.058Z,31.49
2022-08-09T10:50:14.963Z,31.63
2022-08-09T10:53:10.496Z,31.99
2022-08-09T10:55:58.026Z,31.92
2022-08-09T10:58:33.696Z,31.43
2022-08-09T11:03:02.714Z,31.17
2022-08-09T11:04:30.706Z,30.67
2022-08-09T11:07:57.848Z,30.52
2022-08-09T11:10:17.878Z,30.40
2022-08-09T11:13:49.063Z,30.37
2022-08-09T11:16:36.210Z,30.42
2022-08-09T11:19:09.570Z,30.35
2022-08-09T11:22:05.038Z,30.48
2022-08-09T11:25:05.461Z,30.72
2022-08-09T11:28:03.055Z,31.73
2022-08-09T11:30:35.902Z,32.80
2022-08-09T11:33:10.642Z,33.30
2022-08-09T11:35:49.683Z,33.15
2022-08-09T11:38:22.619Z,32.88
2022-08-09T11:41:06.008Z,32.48
2022-08-09T11:43:42.437Z,31.89
2022-08-09T11:46:11.367Z,31.50
2022-08-09T11:48:52.164Z,31.37
2022-08-09T11:52:48.750Z,31.14
2022-08-09T11:54:28.926Z,31.04
2022-08-09T11:57:56.392Z,30.88
2022-08-09T12:00:28.177Z,30.92
2022-08-09T12:02:57.784Z,30.86
2022-08-09T12:05:37.967Z,30.79
2022-08-09T12:08:12.088Z,30.69
2022-08-09T12:10:48.285Z,30.32
2022-08-09T12:14:08.447Z,30.12
2022-08-09T12:16:37.760Z,29.96
2022-08-09T12:19:08.896Z,29.97
2022-08-09T12:21:48.624Z,30.07
2022-08-09T12:24:24.054Z,30.05
2022-08-09T12:28:59.954Z,29.96
2022-08-09T12:30:01.499Z,30.23
2022-08-09T12:32:42.224Z,30.78
2022-08-09T12:35:13.377Z,30.84
2022-08-09T12:37:51.675Z,31.13
2022-08-09T12:40:23.255Z,31.24
2022-08-09T12:42:53.277Z,30.96
2022-08-09T12:45:33.519Z,30.98
2022-08-09T12:48:10.716Z,30.60
2022-08-09T12:50:49.540Z,30.46
2022-08-09T12:53:37.631Z,30.35
2022-08-09T12:56:13.815Z,30.53
2022-08-09T12:59:09.189Z,31.66
2022-08-09T13:01:42.623Z,32.60
2022-08-09T13:04:37.017Z,33.02
2022-08-09T13:07:11.994Z,33.97
2022-08-09T13:09:56.018Z,34.22
2022-08-09T13:15:21.631Z,34.26
2022-08-09T13:18:04.702Z,34.65
2022-08-09T13:21:04.183Z,34.63
2022-08-09T13:24:42.501Z,34.47
2022-08-09T13:26:43.669Z,34.12
2022-08-09T13:29:20.669Z,33.50
2022-08-09T13:32:17.630Z,33.19
2022-08-09T13:34:49.308Z,32.73
2022-08-09T13:37:50.666Z,32.36
2022-08-09T13:41:46.298Z,31.74
2022-08-09T13:43:03.529Z,31.50
2022-08-09T13:46:42.714Z,31.20
2022-08-09T13:48:21.491Z,31.11
2022-08-09T13:50:49.520Z,31.45
2022-08-09T13:53:17.747Z,32.29
2022-08-09T13:55:47.822Z,33.25
2022-08-09T13:58:17.449Z,34.00
2022-08-09T14:00:50.327Z,34.62
2022-08-09T14:04:02.458Z,35.00
2022-08-09T14:06:19.522Z,35.80
2022-08-09T14:08:55.027Z,35.66
2022-08-09T14:11:23.746Z,35.54
2022-08-09T14:14:23.194Z,35.79
2022-08-09T14:16:41.177Z,35.99
2022-08-09T14:19:09.572Z,36.37
2022-08-09T14:21:38.154Z,36.50
2022-08-09T14:24:18.806Z,37.22
2022-08-09T14:26:51.344Z,36.79
2022-08-09T14:29:25.764Z,36.47
2022-08-09T14:32:11.384Z,36.91
2022-08-09T14:34:44.380Z,37.16
2022-08-09T14:37:12.940Z,36.60
2022-08-09T14:39:47.455Z,36.57
2022-08-09T14:42:30.657Z,36.67
2022-08-09T14:46:57.369Z,36.61
2022-08-09T14:48:02.408Z,36.68
2022-08-09T14:50:34.099Z,36.66
2022-08-09T14:53:06.143Z,36.80
2022-08-09T14:55:42.124Z,36.96
2022-08-09T14:58:12.364Z,36.95
2022-08-09T15:00:42.618Z,36.73
2022-08-09T15:03:20.089Z,36.91
2022-08-09T15:05:52.537Z,36.90
2022-08-09T15:08:25.089Z,36.83
2022-08-09T15:11:00.721Z,36.72
2022-08-09T15:13:56.455Z,36.70
2022-08-09T15:16:19.639Z,36.88
2022-08-09T15:18:48.443Z,36.93
2022-08-09T15:21:55.135Z,36.47
2022-08-09T15:24:13.047Z,36.41
2022-08-09T15:26:45.375Z,36.01
2022-08-09T15:30:57.712Z,36.24
2022-08-09T15:32:05.470Z,36.30
2022-08-09T15:34:54.450Z,36.38
2022-08-09T15:37:56.869Z,36.54
2022-08-09T15:40:32.047Z,36.44
2022-08-09T15:43:02.643Z,36.12
2022-08-09T15:45:30.861Z,36.08
2022-08-09T15:48:28.753Z,35.92
2022-08-09T15:50:57.935Z,35.61
2022-08-09T15:54:05.384Z,35.70
2022-08-09T15:56:29.301Z,35.13
2022-08-09T15:58:59.803Z,34.94
2022-08-09T16:01:31.431Z,34.68
2022-08-09T16:04:04.891Z,34.53
2022-08-09T16:06:37.361Z,34.58
2022-08-09T16:09:06.240Z,34.58
2022-08-09T16:11:34.465Z,34.67
2022-08-09T16:14:06.901Z,34.82
2022-08-09T16:16:37.280Z,34.50
2022-08-09T16:19:08.559Z,34.48
2022-08-09T16:21:36.734Z,34.84
2022-08-09T16:24:20.119Z,34.95
2022-08-09T16:26:59.435Z,34.77
2022-08-09T16:29:36.806Z,34.54
2022-08-09T16:32:19.004Z,34.23
2022-08-09T16:34:58.126Z,34.05
2022-08-09T16:37:53.380Z,33.90
2022-08-09T16:40:20.457Z,33.78
2022-08-09T16:43:16.514Z,33.69
2022-08-09T16:45:46.437Z,33.34
2022-08-09T16:48:38.849Z,33.07
2022-08-09T16:51:07.962Z,32.85
2022-08-09T16:54:02.363Z,32.78
2022-08-09T16:56:30.610Z,32.70
2022-08-09T16:58:59.252Z,32.41
2022-08-09T17:01:33.936Z,32.32
2022-08-09T17:04:02.264Z,32.10
2022-08-09T17:06:33.741Z,31.98
2022-08-09T17:09:45.339Z,31.71
2022-08-09T17:12:09.844Z,31.13
2022-08-09T17:14:37.849Z,31.06
2022-08-09T17:17:12.892Z,30.81
2022-08-09T17:20:32.574Z,30.39
2022-08-09T17:22:51.752Z,30.31
2022-08-09T17:25:22.183Z,29.97
2022-08-09T17:27:53.939Z,29.78
2022-08-09T17:30:25.962Z,29.50
2022-08-09T17:33:00.543Z,29.42
2022-08-09T17:35:33.845Z,29.26
2022-08-09T17:38:29.247Z,28.80
2022-08-09T17:40:51.932Z,28.90
2022-08-09T17:43:33.740Z,28.94
2022-08-09T17:46:07.110Z,28.65
2022-08-09T17:48:38.868Z,28.48
2022-08-09T17:51:17.534Z,28.54
2022-08-09T17:53:52.292Z,28.41
2022-08-09T17:56:35.961Z,28.22
2022-08-09T17:59:11.974Z,27.89
2022-08-09T18:02:07.433Z,27.90
2022-08-09T18:04:33.478Z,27.86
2022-08-09T18:07:04.667Z,27.87
2022-08-09T18:09:41.396Z,27.68
2022-08-09T18:12:18.276Z,27.72
2022-08-09T18:14:54.660Z,27.59
2022-08-09T18:17:27.313Z,27.57
2022-08-09T18:20:56.085Z,27.59
2022-08-09T18:23:05.614Z,27.59
2022-08-09T18:25:50.625Z,27.52
2022-08-09T18:30:35.655Z,27.43
2022-08-09T18:31:09.879Z,27.27
2022-08-09T18:33:38.041Z,27.29
2022-08-09T18:36:14.148Z,27.21
2022-08-09T18:38:57.300Z,27.06
2022-08-09T18:41:35.096Z,27.01
2022-08-09T18:44:10.592Z,26.84
2022-08-09T18:46:50.146Z,26.82
2022-08-09T18:49:32.082Z,26.70
2022-08-09T18:52:10.122Z,26.60
2022-08-09T18:54:42.031Z,26.52
2022-08-09T18:57:19.918Z,26.36
2022-08-09T18:59:54.427Z,26.32
2022-08-09T19:02:32.265Z,26.25
2022-08-09T19:05:03.848Z,26.26
2022-08-09T19:08:04.597Z,26.25
2022-08-09T19:10:37.148Z,26.25
2022-08-09T19:13:18.853Z,26.35
2022-08-09T19:15:52.297Z,26.32
2022-08-09T19:18:34.063Z,26.24
2022-08-09T19:21:09.627Z,26.01
2022-08-09T19:24:33.096Z,26.04
2022-08-09T19:26:31.836Z,26.06
2022-08-09T19:29:03.622Z,26.11
2022-08-09T19:31:45.545Z,25.88
2022-08-09T19:34:21.650Z,25.71
2022-08-09T19:36:52.063Z,25.61
2022-08-09T19:39:43.523Z,25.72
2022-08-09T19:42:08.910Z,25.72
2022-08-09T19:44:44.599Z,25.70
2022-08-09T19:47:22.791Z,25.76
2022-08-09T19:50:06.599Z,25.73
2022-08-09T19:52:37.351Z,25.77
2022-08-09T19:55:19.483Z,25.85
2022-08-09T19:57:54.124Z,25.81
2022-08-09T20:00:23.609Z,25.80
2022-08-09T20:04:09.574Z,25.82
2022-08-09T20:05:47.008Z,25.89
2022-08-09T20:08:33.219Z,25.87
2022-08-09T20:11:04.462Z,25.67
2022-08-09T20:13:37.011Z,25.49
2022-08-09T20:16:37.127Z,25.29
2022-08-09T20:19:41.851Z,24.97
2022-08-09T20:21:56.299Z,24.89
2022-08-09T20:24:29.764Z,24.94
2022-08-09T20:27:01.604Z,24.92
2022-08-09T20:29:37.062Z,24.78
2022-08-09T20:32:29.420Z,24.72
2022-08-09T20:34:58.603Z,24.69
2022-08-09T20:38:18.462Z,24.69
2022-08-09T20:40:26.450Z,24.71
2022-08-09T20:42:59.575Z,24.67
2022-08-09T20:46:01.158Z,24.77
2022-08-09T20:48:21.119Z,24.80
2022-08-09T20:50:55.724Z,24.78
2022-08-09T20:53:35.191Z,24.64
2022-08-09T20:56:06.447Z,24.49
2022-08-09T20:58:38.120Z,24.38
2022-08-09T21:01:32.974Z,24.40
2022-08-09T21:04:35.633Z,24.25
2022-08-09T21:06:45.294Z,24.20
2022-08-09T21:09:14.248Z,24.01
2022-08-09T21:14:34.706Z,23.84
2022-08-09T21:18:23.475Z,23.82
2022-08-09T21:20:18.201Z,23.87
2022-08-09T21:22:46.617Z,23.95
2022-08-09T21:25:38.063Z,23.92
2022-08-09T21:28:12.034Z,23.79
2022-08-09T21:30:43.757Z,23.78
2022-08-09T21:33:11.832Z,23.73
2022-08-09T21:35:51.225Z,23.75
2022-08-09T21:38:31.010Z,23.72
2022-08-09T21:41:00.295Z,23.62
2022-08-09T21:43:56.935Z,23.67
2022-08-09T21:46:16.421Z,23.61
2022-08-09T21:48:46.670Z,23.61
2022-08-09T21:51:35.657Z,23.54
2022-08-09T21:54:04.096Z,23.57
2022-08-09T21:56:43.315Z,23.61
2022-08-09T21:59:20.163Z,23.57
2022-08-09T22:02:01.264Z,23.50
2022-08-09T22:04:55.232Z,23.46
2022-08-09T22:07:35.495Z,23.32
2022-08-09T22:10:10.766Z,23.17
2022-08-09T22:12:39.660Z,23.02
2022-08-09T22:15:17.897Z,23.08
2022-08-09T22:17:48.635Z,23.08
2022-08-09T22:20:21.815Z,23.01
2022-08-09T22:22:57.024Z,22.99
2022-08-09T22:26:06.970Z,22.93
2022-08-09T22:28:13.402Z,22.95
2022-08-09T22:30:49.185Z,22.94
2022-08-09T22:33:17.450Z,23.06
2022-08-09T22:36:02.052Z,23.12
2022-08-09T22:38:32.944Z,23.04
2022-08-09T22:41:01.267Z,22.96
2022-08-09T22:44:02.576Z,22.81
2022-08-09T22:48:14.261Z,22.71
2022-08-09T22:49:10.025Z,22.64
2022-08-09T22:51:43.264Z,22.62
2022-08-09T22:54:21.326Z,22.61
2022-08-09T22:56:50.768Z,22.55
2022-08-09T22:59:57.827Z,22.48
2022-08-09T23:02:10.510Z,22.49
2022-08-09T23:04:53.291Z,22.45
2022-08-09T23:08:22.052Z,22.37
2022-08-09T23:10:31.003Z,22.30
2022-08-09T23:12:59.310Z,22.35
2022-08-09T23:15:28.035Z,22.31
2022-08-09T23:17:57.323Z,22.29
2022-08-09T23:20:26.203Z,22.28
2022-08-09T23:22:54.364Z,22.33
2022-08-09T23:25:22.284Z,22.28
2022-08-09T23:28:11.681Z,22.21
2022-08-09T23:30:39.475Z,22.09
2022-08-09T23:33:19.410Z,22.05
2022-08-09T23:36:06.685Z,22.01
2022-08-09T23:38:48.463Z,21.98
2022-08-09T23:41:27.739Z,21.99
2022-08-09T23:43:59.646Z,22.03
2022-08-09T23:46:28.043Z,22.01
2022-08-09T23:48:56.114Z,22.04
2022-08-09T23:51:24.311Z,22.01
2022-08-09T23:53:55.446Z,21.98
2022-08-09T23:56:53.434Z,21.88
2022-08-09T23:59:20.652Z,21.90
